This is the latest recevied weather packets stored in our database for station/object WBKK. If no packets are shown the sender has not sent any weather packets the latest 10 day(s).
| Time | Temp. | Humidity | Pressure | Rain* | Wind** | Luminosity | Snow |
|---|---|---|---|---|---|---|---|
| 1777380044 | 25.56° C | 88% | 1007 hPa | - | - | - | - |
| 1777378313 | 25.56° C | 94% | 1007 hPa | - | - | - | - |
| 1777372844 | 26.67° C | 88% | 1006 hPa | - | - | - | - |
| 1777371111 | 26.67° C | 88% | 1006 hPa | - | - | - | - |
| 1777369243 | 26.67° C | 88% | 1006 hPa | - | - | - | - |
| 1777365644 | 25.56° C | 94% | 1006 hPa | - | - | - | - |
| 1777365034 | 25.56° C | 94% | 1006 hPa | - | - | - | - |
| 1777363912 | 25.56° C | 94% | 1006 hPa | - | - | - | - |
| 1777363236 | 26.67° C | 88% | 1006 hPa | - | - | - | - |
| 1777362636 | 27.78° C | 88% | 1006 hPa | - | - | - | - |
| 1777362051 | 28.89° C | 83% | 1006 hPa | - | - | - | - |
| 1777360836 | 30° C | 79% | 1006 hPa | - | - | - | - |
| 1777356711 | 30.56° C | 70% | 1006 hPa | - | - | - | - |
| 1777354846 | 31.67° C | 70% | 1007 hPa | - | - | - | - |
| 1777353138 | 31.67° C | 70% | 1007 hPa | - | - | - | - |
| 1777351243 | 31.67° C | 70% | 1007 hPa | - | - | - | - |
| 1777349512 | 31.67° C | 74% | 1008 hPa | - | - | - | - |
| 1777347647 | 31.67° C | 70% | 1008 hPa | - | - | - | - |
| 1777345910 | 31.67° C | 70% | 1008 hPa | - | - | - | - |
| 1777342310 | 30.56° C | 74% | 1009 hPa | - | - | - | - |
| 1777340443 | 30.56° C | 74% | 1009 hPa | - | - | - | - |
| 1777338736 | 30° C | 79% | 1009 hPa | - | - | - | - |
* Rain since midnight (hover to see other rain measurements)
** Current wind speed in m/s (hover to see current wind gust speed)